KDSV/DSV METAR and TAF weather

Enter ICAO airport designator
Station Type Date Time Source
KDSV METAR 2019/06/16 05:54 UTC NOAA

KDSV 160554Z AUTO 17003KT 10SM BKN024 BKN055 OVC075 18/17 A2988 RMK AO2 SLP123 60000 T01780167 10183 20172 58005


Station Type Date Time Source
KDSV Decoded METAR 2019/06/16 05:54 UTC NOAA

DANSVILLE MUNICIPAL AIRPORT, NY, United States (KDSV) 42-34N 077-43W 198M
Jun 16, 2019 - 01:54 AM EDT / 2019.06.16 0554 UTC
Wind: from the S (170 degrees) at 3 MPH (3 KT):0
Visibility: 10 mile(s):0
Sky conditions: overcast
Temperature: 64.0 F (17.8 C)
Dew Point: 62.1 F (16.7 C)
Relative Humidity: 93%
Pressure (altimeter): 29.88 in. Hg (1011 hPa)
Pressure tendency: 0.01 inches (0.5 hPa) lower than three hours ago
ob: KDSV 160554Z AUTO 17003KT 10SM BKN024 BKN055 OVC075 18/17 A2988 RMK AO2 SLP123 60000 T01780167 10183 20172 58005
cycle: 6

Station Type Date Time Source
KDSV TAF UTC NOAA

Error!

Example: see airport list